sensor_id;sensor_type;location;lat;lon;timestamp;P1;durP1;ratioP1;P2;durP2;ratioP2
31724;SDS011;18306;40.960;14.836;2023-04-08T00:00:32;13.35;;;5.45;;
31724;SDS011;18306;40.960;14.836;2023-04-08T00:03:00;7.55;;;4.65;;
31724;SDS011;18306;40.960;14.836;2023-04-08T00:05:27;12.23;;;4.22;;
31724;SDS011;18306;40.960;14.836;2023-04-08T00:07:55;8.13;;;4.78;;
31724;SDS011;18306;40.960;14.836;2023-04-08T00:10:21;7.95;;;4.38;;
31724;SDS011;18306;40.960;14.836;2023-04-08T00:12:50;11.70;;;5.35;;
31724;SDS011;18306;40.960;14.836;2023-04-08T00:15:17;8.27;;;5.18;;
31724;SDS011;18306;40.960;14.836;2023-04-08T00:17:44;7.60;;;4.78;;
31724;SDS011;18306;40.960;14.836;2023-04-08T00:20:11;9.10;;;4.70;;
31724;SDS011;18306;40.960;14.836;2023-04-08T00:22:38;8.07;;;4.13;;
31724;SDS011;18306;40.960;14.836;2023-04-08T00:25:05;7.20;;;4.00;;
31724;SDS011;18306;40.960;14.836;2023-04-08T00:27:34;8.23;;;4.72;;
31724;SDS011;18306;40.960;14.836;2023-04-08T00:30:01;9.18;;;4.13;;
31724;SDS011;18306;40.960;14.836;2023-04-08T00:32:28;7.75;;;4.70;;
31724;SDS011;18306;40.960;14.836;2023-04-08T00:34:57;8.00;;;4.07;;
31724;SDS011;18306;40.960;14.836;2023-04-08T00:37:24;13.10;;;4.32;;
31724;SDS011;18306;40.960;14.836;2023-04-08T00:39:51;11.40;;;5.63;;
31724;SDS011;18306;40.960;14.836;2023-04-08T00:42:19;8.93;;;5.30;;
31724;SDS011;18306;40.960;14.836;2023-04-08T00:44:47;7.20;;;4.20;;
31724;SDS011;18306;40.960;14.836;2023-04-08T00:47:14;5.82;;;4.03;;
31724;SDS011;18306;40.960;14.836;2023-04-08T00:49:42;4.97;;;3.83;;
31724;SDS011;18306;40.960;14.836;2023-04-08T00:52:09;5.78;;;4.13;;
31724;SDS011;18306;40.960;14.836;2023-04-08T00:54:36;8.27;;;3.65;;
31724;SDS011;18306;40.960;14.836;2023-04-08T00:57:04;10.38;;;4.10;;
31724;SDS011;18306;40.960;14.836;2023-04-08T00:59:32;8.88;;;4.05;;
31724;SDS011;18306;40.960;14.836;2023-04-08T01:04:43;6.05;;;3.72;;
31724;SDS011;18306;40.960;14.836;2023-04-08T01:07:30;3.83;;;3.35;;
31724;SDS011;18306;40.960;14.836;2023-04-08T01:10:11;10.35;;;5.60;;
31724;SDS011;18306;40.960;14.836;2023-04-08T01:12:47;16.13;;;3.88;;
31724;SDS011;18306;40.960;14.836;2023-04-08T01:15:25;8.63;;;4.15;;
31724;SDS011;18306;40.960;14.836;2023-04-08T01:17:55;8.02;;;4.65;;
31724;SDS011;18306;40.960;14.836;2023-04-08T01:20:24;6.22;;;4.10;;
31724;SDS011;18306;40.960;14.836;2023-04-08T01:25:47;12.13;;;4.50;;
31724;SDS011;18306;40.960;14.836;2023-04-08T01:28:16;7.22;;;4.00;;
31724;SDS011;18306;40.960;14.836;2023-04-08T01:30:44;6.55;;;3.80;;
31724;SDS011;18306;40.960;14.836;2023-04-08T01:33:14;6.78;;;4.10;;
31724;SDS011;18306;40.960;14.836;2023-04-08T01:35:43;8.25;;;5.40;;
31724;SDS011;18306;40.960;14.836;2023-04-08T01:38:13;6.45;;;3.97;;
31724;SDS011;18306;40.960;14.836;2023-04-08T01:40:42;8.45;;;4.70;;
31724;SDS011;18306;40.960;14.836;2023-04-08T01:43:12;8.60;;;4.85;;
31724;SDS011;18306;40.960;14.836;2023-04-08T01:45:45;8.23;;;4.05;;
31724;SDS011;18306;40.960;14.836;2023-04-08T01:48:14;4.90;;;3.38;;
31724;SDS011;18306;40.960;14.836;2023-04-08T01:50:42;8.70;;;4.82;;
31724;SDS011;18306;40.960;14.836;2023-04-08T01:53:12;6.68;;;3.85;;
31724;SDS011;18306;40.960;14.836;2023-04-08T01:55:39;5.63;;;4.00;;
31724;SDS011;18306;40.960;14.836;2023-04-08T01:58:10;11.55;;;4.22;;
31724;SDS011;18306;40.960;14.836;2023-04-08T02:00:41;7.53;;;4.30;;
31724;SDS011;18306;40.960;14.836;2023-04-08T02:03:13;9.55;;;5.25;;
31724;SDS011;18306;40.960;14.836;2023-04-08T02:05:45;5.90;;;3.78;;
31724;SDS011;18306;40.960;14.836;2023-04-08T02:08:12;11.20;;;4.47;;
31724;SDS011;18306;40.960;14.836;2023-04-08T02:10:39;8.70;;;5.13;;
31724;SDS011;18306;40.960;14.836;2023-04-08T02:13:06;5.75;;;3.65;;
31724;SDS011;18306;40.960;14.836;2023-04-08T02:15:35;17.25;;;4.38;;
31724;SDS011;18306;40.960;14.836;2023-04-08T02:20:42;4.50;;;3.55;;
31724;SDS011;18306;40.960;14.836;2023-04-08T02:23:20;5.07;;;3.05;;
31724;SDS011;18306;40.960;14.836;2023-04-08T02:25:50;6.15;;;3.53;;
31724;SDS011;18306;40.960;14.836;2023-04-08T02:28:20;8.18;;;3.83;;
31724;SDS011;18306;40.960;14.836;2023-04-08T02:30:49;4.63;;;3.13;;
31724;SDS011;18306;40.960;14.836;2023-04-08T02:33:19;6.78;;;3.47;;
31724;SDS011;18306;40.960;14.836;2023-04-08T02:35:48;5.90;;;3.05;;
31724;SDS011;18306;40.960;14.836;2023-04-08T02:38:16;9.10;;;4.03;;
31724;SDS011;18306;40.960;14.836;2023-04-08T02:40:43;11.13;;;3.40;;
31724;SDS011;18306;40.960;14.836;2023-04-08T02:43:10;6.47;;;3.42;;
31724;SDS011;18306;40.960;14.836;2023-04-08T02:45:39;5.35;;;3.63;;
31724;SDS011;18306;40.960;14.836;2023-04-08T02:48:08;7.65;;;3.85;;
31724;SDS011;18306;40.960;14.836;2023-04-08T02:50:36;5.35;;;3.05;;
31724;SDS011;18306;40.960;14.836;2023-04-08T02:53:03;6.60;;;3.35;;
31724;SDS011;18306;40.960;14.836;2023-04-08T02:55:32;4.97;;;3.60;;
31724;SDS011;18306;40.960;14.836;2023-04-08T02:57:59;6.15;;;3.75;;
31724;SDS011;18306;40.960;14.836;2023-04-08T03:00:26;7.05;;;3.72;;
31724;SDS011;18306;40.960;14.836;2023-04-08T03:02:53;7.30;;;4.00;;
31724;SDS011;18306;40.960;14.836;2023-04-08T03:05:20;8.80;;;4.18;;
31724;SDS011;18306;40.960;14.836;2023-04-08T03:07:47;4.53;;;3.45;;
31724;SDS011;18306;40.960;14.836;2023-04-08T03:10:14;4.72;;;3.45;;
31724;SDS011;18306;40.960;14.836;2023-04-08T03:12:41;10.73;;;3.90;;
31724;SDS011;18306;40.960;14.836;2023-04-08T03:15:08;11.25;;;4.60;;
31724;SDS011;18306;40.960;14.836;2023-04-08T03:17:36;9.05;;;4.32;;
31724;SDS011;18306;40.960;14.836;2023-04-08T03:20:03;4.13;;;2.80;;
31724;SDS011;18306;40.960;14.836;2023-04-08T03:22:31;4.90;;;3.40;;
31724;SDS011;18306;40.960;14.836;2023-04-08T03:24:59;6.55;;;3.70;;
31724;SDS011;18306;40.960;14.836;2023-04-08T03:27:26;9.93;;;3.95;;
31724;SDS011;18306;40.960;14.836;2023-04-08T03:29:53;8.07;;;4.10;;
31724;SDS011;18306;40.960;14.836;2023-04-08T03:32:20;7.82;;;3.47;;
31724;SDS011;18306;40.960;14.836;2023-04-08T03:34:47;11.73;;;3.92;;
31724;SDS011;18306;40.960;14.836;2023-04-08T03:37:16;7.85;;;3.78;;
31724;SDS011;18306;40.960;14.836;2023-04-08T03:39:43;4.53;;;3.33;;
31724;SDS011;18306;40.960;14.836;2023-04-08T03:42:11;9.13;;;4.20;;
31724;SDS011;18306;40.960;14.836;2023-04-08T03:44:38;4.72;;;3.13;;
31724;SDS011;18306;40.960;14.836;2023-04-08T03:47:05;4.97;;;3.28;;
31724;SDS011;18306;40.960;14.836;2023-04-08T03:49:32;3.90;;;2.50;;
31724;SDS011;18306;40.960;14.836;2023-04-08T03:51:59;6.28;;;3.42;;
31724;SDS011;18306;40.960;14.836;2023-04-08T03:54:27;7.30;;;3.80;;
31724;SDS011;18306;40.960;14.836;2023-04-08T03:56:54;4.60;;;3.38;;
31724;SDS011;18306;40.960;14.836;2023-04-08T03:59:21;4.03;;;3.08;;
31724;SDS011;18306;40.960;14.836;2023-04-08T04:01:48;6.13;;;3.03;;
31724;SDS011;18306;40.960;14.836;2023-04-08T04:04:16;12.00;;;3.97;;
31724;SDS011;18306;40.960;14.836;2023-04-08T04:06:43;11.52;;;3.95;;
31724;SDS011;18306;40.960;14.836;2023-04-08T04:09:10;4.80;;;3.67;;
31724;SDS011;18306;40.960;14.836;2023-04-08T04:11:37;15.10;;;3.78;;
31724;SDS011;18306;40.960;14.836;2023-04-08T04:14:04;6.25;;;3.00;;
31724;SDS011;18306;40.960;14.836;2023-04-08T04:16:31;5.60;;;2.83;;
31724;SDS011;18306;40.960;14.836;2023-04-08T04:18:58;5.25;;;3.55;;
31724;SDS011;18306;40.960;14.836;2023-04-08T04:21:26;7.05;;;3.63;;
31724;SDS011;18306;40.960;14.836;2023-04-08T04:23:52;9.48;;;3.33;;
31724;SDS011;18306;40.960;14.836;2023-04-08T04:26:20;38.17;;;14.60;;
31724;SDS011;18306;40.960;14.836;2023-04-08T04:28:47;8.52;;;4.97;;
31724;SDS011;18306;40.960;14.836;2023-04-08T04:31:17;11.25;;;4.55;;
31724;SDS011;18306;40.960;14.836;2023-04-08T04:33:48;8.57;;;4.35;;
31724;SDS011;18306;40.960;14.836;2023-04-08T04:36:16;11.77;;;4.95;;
31724;SDS011;18306;40.960;14.836;2023-04-08T04:38:43;9.63;;;3.90;;
31724;SDS011;18306;40.960;14.836;2023-04-08T04:41:10;19.40;;;7.65;;
31724;SDS011;18306;40.960;14.836;2023-04-08T04:43:37;11.55;;;4.35;;
31724;SDS011;18306;40.960;14.836;2023-04-08T04:46:04;7.13;;;4.22;;
31724;SDS011;18306;40.960;14.836;2023-04-08T04:48:34;8.38;;;4.05;;
31724;SDS011;18306;40.960;14.836;2023-04-08T04:51:01;8.93;;;4.15;;
31724;SDS011;18306;40.960;14.836;2023-04-08T04:53:29;6.53;;;3.88;;
31724;SDS011;18306;40.960;14.836;2023-04-08T04:55:56;4.45;;;3.38;;
31724;SDS011;18306;40.960;14.836;2023-04-08T04:58:23;8.07;;;3.47;;
31724;SDS011;18306;40.960;14.836;2023-04-08T05:00:50;5.03;;;3.58;;
31724;SDS011;18306;40.960;14.836;2023-04-08T05:03:17;6.90;;;4.40;;
31724;SDS011;18306;40.960;14.836;2023-04-08T05:05:44;9.50;;;5.03;;
31724;SDS011;18306;40.960;14.836;2023-04-08T05:08:15;8.40;;;4.18;;
31724;SDS011;18306;40.960;14.836;2023-04-08T05:10:44;11.82;;;7.72;;
31724;SDS011;18306;40.960;14.836;2023-04-08T05:13:22;12.23;;;6.50;;
31724;SDS011;18306;40.960;14.836;2023-04-08T05:16:13;12.73;;;5.93;;
31724;SDS011;18306;40.960;14.836;2023-04-08T05:19:00;31.25;;;14.52;;
31724;SDS011;18306;40.960;14.836;2023-04-08T05:21:45;9.90;;;5.60;;
31724;SDS011;18306;40.960;14.836;2023-04-08T05:24:17;14.75;;;8.23;;
31724;SDS011;18306;40.960;14.836;2023-04-08T05:26:51;14.80;;;5.65;;
31724;SDS011;18306;40.960;14.836;2023-04-08T05:29:25;9.75;;;4.68;;
31724;SDS011;18306;40.960;14.836;2023-04-08T05:31:55;6.80;;;4.55;;
31724;SDS011;18306;40.960;14.836;2023-04-08T05:34:22;4.68;;;3.55;;
31724;SDS011;18306;40.960;14.836;2023-04-08T05:36:49;5.63;;;3.42;;
31724;SDS011;18306;40.960;14.836;2023-04-08T05:39:19;9.63;;;4.13;;
31724;SDS011;18306;40.960;14.836;2023-04-08T05:41:46;11.68;;;5.75;;
31724;SDS011;18306;40.960;14.836;2023-04-08T05:44:13;14.55;;;6.15;;
31724;SDS011;18306;40.960;14.836;2023-04-08T05:46:41;8.60;;;5.25;;
31724;SDS011;18306;40.960;14.836;2023-04-08T05:49:09;9.48;;;4.43;;
31724;SDS011;18306;40.960;14.836;2023-04-08T05:51:36;8.75;;;4.60;;
31724;SDS011;18306;40.960;14.836;2023-04-08T05:54:04;7.70;;;4.95;;
31724;SDS011;18306;40.960;14.836;2023-04-08T05:56:31;9.43;;;5.30;;
31724;SDS011;18306;40.960;14.836;2023-04-08T05:58:58;8.45;;;5.05;;
31724;SDS011;18306;40.960;14.836;2023-04-08T06:01:25;7.95;;;4.40;;
31724;SDS011;18306;40.960;14.836;2023-04-08T06:03:52;12.68;;;5.22;;
31724;SDS011;18306;40.960;14.836;2023-04-08T06:06:21;5.80;;;4.07;;
31724;SDS011;18306;40.960;14.836;2023-04-08T06:08:50;9.07;;;4.95;;
31724;SDS011;18306;40.960;14.836;2023-04-08T06:11:17;8.43;;;4.45;;
31724;SDS011;18306;40.960;14.836;2023-04-08T06:13:44;7.28;;;5.20;;
31724;SDS011;18306;40.960;14.836;2023-04-08T06:16:12;16.27;;;5.40;;
31724;SDS011;18306;40.960;14.836;2023-04-08T06:18:40;7.40;;;5.18;;
31724;SDS011;18306;40.960;14.836;2023-04-08T06:21:07;7.80;;;4.40;;
31724;SDS011;18306;40.960;14.836;2023-04-08T06:23:35;7.47;;;4.22;;
31724;SDS011;18306;40.960;14.836;2023-04-08T06:26:02;14.45;;;7.15;;
31724;SDS011;18306;40.960;14.836;2023-04-08T06:28:30;31.05;;;12.63;;
31724;SDS011;18306;40.960;14.836;2023-04-08T06:30:57;13.70;;;6.68;;
31724;SDS011;18306;40.960;14.836;2023-04-08T06:33:24;12.70;;;5.82;;
31724;SDS011;18306;40.960;14.836;2023-04-08T06:35:59;7.60;;;4.63;;
31724;SDS011;18306;40.960;14.836;2023-04-08T06:38:28;7.32;;;4.47;;
31724;SDS011;18306;40.960;14.836;2023-04-08T06:41:00;8.18;;;4.53;;
31724;SDS011;18306;40.960;14.836;2023-04-08T06:43:32;8.07;;;4.50;;
31724;SDS011;18306;40.960;14.836;2023-04-08T06:46:06;8.77;;;4.60;;
31724;SDS011;18306;40.960;14.836;2023-04-08T06:48:34;8.13;;;5.07;;
31724;SDS011;18306;40.960;14.836;2023-04-08T06:51:10;13.21;;;5.13;;
31724;SDS011;18306;40.960;14.836;2023-04-08T06:53:37;10.00;;;5.47;;
31724;SDS011;18306;40.960;14.836;2023-04-08T06:56:05;14.93;;;6.68;;
31724;SDS011;18306;40.960;14.836;2023-04-08T06:58:33;10.75;;;7.47;;
31724;SDS011;18306;40.960;14.836;2023-04-08T07:01:00;13.77;;;7.75;;
31724;SDS011;18306;40.960;14.836;2023-04-08T07:03:28;11.80;;;6.93;;
31724;SDS011;18306;40.960;14.836;2023-04-08T07:06:00;53.30;;;30.27;;
31724;SDS011;18306;40.960;14.836;2023-04-08T07:08:29;18.42;;;11.43;;
31724;SDS011;18306;40.960;14.836;2023-04-08T07:10:59;16.05;;;10.05;;
31724;SDS011;18306;40.960;14.836;2023-04-08T07:13:29;25.90;;;14.65;;
31724;SDS011;18306;40.960;14.836;2023-04-08T07:16:03;36.90;;;14.02;;
31724;SDS011;18306;40.960;14.836;2023-04-08T07:18:37;43.15;;;19.52;;
31724;SDS011;18306;40.960;14.836;2023-04-08T07:21:07;39.97;;;17.20;;
31724;SDS011;18306;40.960;14.836;2023-04-08T07:23:35;38.97;;;16.35;;
31724;SDS011;18306;40.960;14.836;2023-04-08T07:26:05;20.38;;;9.98;;
31724;SDS011;18306;40.960;14.836;2023-04-08T07:28:33;16.40;;;10.18;;
31724;SDS011;18306;40.960;14.836;2023-04-08T07:31:13;21.60;;;9.27;;
31724;SDS011;18306;40.960;14.836;2023-04-08T07:33:42;9.25;;;4.95;;
31724;SDS011;18306;40.960;14.836;2023-04-08T07:36:12;7.80;;;5.72;;
31724;SDS011;18306;40.960;14.836;2023-04-08T07:38:42;8.20;;;4.35;;
31724;SDS011;18306;40.960;14.836;2023-04-08T07:41:10;11.90;;;5.55;;
31724;SDS011;18306;40.960;14.836;2023-04-08T07:43:38;8.80;;;4.50;;
31724;SDS011;18306;40.960;14.836;2023-04-08T07:46:09;5.57;;;3.15;;
31724;SDS011;18306;40.960;14.836;2023-04-08T07:48:37;10.00;;;4.60;;
31724;SDS011;18306;40.960;14.836;2023-04-08T07:51:04;7.78;;;3.15;;
31724;SDS011;18306;40.960;14.836;2023-04-08T07:53:32;6.65;;;3.10;;
31724;SDS011;18306;40.960;14.836;2023-04-08T07:56:01;4.13;;;2.53;;
31724;SDS011;18306;40.960;14.836;2023-04-08T07:58:31;3.38;;;2.28;;
31724;SDS011;18306;40.960;14.836;2023-04-08T08:01:00;5.25;;;3.53;;
31724;SDS011;18306;40.960;14.836;2023-04-08T08:03:30;6.57;;;3.03;;
31724;SDS011;18306;40.960;14.836;2023-04-08T08:05:57;5.28;;;3.08;;
31724;SDS011;18306;40.960;14.836;2023-04-08T08:08:24;3.63;;;2.50;;
31724;SDS011;18306;40.960;14.836;2023-04-08T08:10:52;2.85;;;2.25;;
31724;SDS011;18306;40.960;14.836;2023-04-08T08:13:22;6.55;;;3.17;;
31724;SDS011;18306;40.960;14.836;2023-04-08T08:15:52;6.47;;;3.15;;
31724;SDS011;18306;40.960;14.836;2023-04-08T08:18:21;5.13;;;2.40;;
31724;SDS011;18306;40.960;14.836;2023-04-08T08:20:48;5.20;;;2.60;;
31724;SDS011;18306;40.960;14.836;2023-04-08T08:23:16;10.95;;;6.55;;
31724;SDS011;18306;40.960;14.836;2023-04-08T08:25:47;32.33;;;13.75;;
31724;SDS011;18306;40.960;14.836;2023-04-08T08:28:15;22.88;;;11.10;;
31724;SDS011;18306;40.960;14.836;2023-04-08T08:30:53;19.20;;;10.43;;
31724;SDS011;18306;40.960;14.836;2023-04-08T08:33:24;13.40;;;5.35;;
31724;SDS011;18306;40.960;14.836;2023-04-08T08:35:52;11.68;;;6.05;;
31724;SDS011;18306;40.960;14.836;2023-04-08T08:38:20;13.63;;;6.95;;
31724;SDS011;18306;40.960;14.836;2023-04-08T08:40:52;1.80;;;1.67;;
31724;SDS011;18306;40.960;14.836;2023-04-08T08:43:23;10.70;;;3.28;;
31724;SDS011;18306;40.960;14.836;2023-04-08T08:45:54;2.85;;;2.55;;
31724;SDS011;18306;40.960;14.836;2023-04-08T08:48:23;2.03;;;1.52;;
31724;SDS011;18306;40.960;14.836;2023-04-08T08:50:50;6.90;;;3.80;;
31724;SDS011;18306;40.960;14.836;2023-04-08T08:53:19;4.18;;;2.95;;
31724;SDS011;18306;40.960;14.836;2023-04-08T08:55:49;2.15;;;1.88;;
31724;SDS011;18306;40.960;14.836;2023-04-08T08:58:18;1.83;;;1.38;;
31724;SDS011;18306;40.960;14.836;2023-04-08T09:00:45;2.90;;;2.33;;
31724;SDS011;18306;40.960;14.836;2023-04-08T09:03:13;4.53;;;2.90;;
31724;SDS011;18306;40.960;14.836;2023-04-08T09:05:54;8.45;;;6.10;;
31724;SDS011;18306;40.960;14.836;2023-04-08T09:08:29;20.90;;;9.23;;
31724;SDS011;18306;40.960;14.836;2023-04-08T09:11:14;7.00;;;2.53;;
31724;SDS011;18306;40.960;14.836;2023-04-08T09:13:44;3.05;;;1.45;;
31724;SDS011;18306;40.960;14.836;2023-04-08T09:16:13;2.28;;;1.77;;
31724;SDS011;18306;40.960;14.836;2023-04-08T09:18:43;3.75;;;1.90;;
31724;SDS011;18306;40.960;14.836;2023-04-08T09:21:12;2.33;;;1.92;;
31724;SDS011;18306;40.960;14.836;2023-04-08T09:23:49;4.28;;;1.95;;
31724;SDS011;18306;40.960;14.836;2023-04-08T09:26:21;3.08;;;1.67;;
31724;SDS011;18306;40.960;14.836;2023-04-08T09:31:35;7.88;;;3.25;;
31724;SDS011;18306;40.960;14.836;2023-04-08T09:34:13;9.85;;;2.33;;
31724;SDS011;18306;40.960;14.836;2023-04-08T09:36:45;5.20;;;2.97;;
31724;SDS011;18306;40.960;14.836;2023-04-08T09:39:14;4.57;;;2.78;;
31724;SDS011;18306;40.960;14.836;2023-04-08T09:41:43;4.35;;;2.40;;
31724;SDS011;18306;40.960;14.836;2023-04-08T09:44:10;6.43;;;3.45;;
31724;SDS011;18306;40.960;14.836;2023-04-08T09:55:01;1.33;;;1.13;;
31724;SDS011;18306;40.960;14.836;2023-04-08T09:57:42;5.88;;;2.08;;
31724;SDS011;18306;40.960;14.836;2023-04-08T10:00:14;1.95;;;1.30;;
31724;SDS011;18306;40.960;14.836;2023-04-08T10:02:55;2.38;;;1.52;;
31724;SDS011;18306;40.960;14.836;2023-04-08T10:05:26;3.17;;;1.80;;
31724;SDS011;18306;40.960;14.836;2023-04-08T10:07:55;5.70;;;1.73;;
31724;SDS011;18306;40.960;14.836;2023-04-08T10:10:22;3.72;;;2.10;;
31724;SDS011;18306;40.960;14.836;2023-04-08T10:12:51;8.65;;;2.38;;
31724;SDS011;18306;40.960;14.836;2023-04-08T10:15:30;6.35;;;2.55;;
31724;SDS011;18306;40.960;14.836;2023-04-08T10:23:05;1.85;;;1.40;;
31724;SDS011;18306;40.960;14.836;2023-04-08T10:25:34;1.90;;;1.13;;
31724;SDS011;18306;40.960;14.836;2023-04-08T10:30:47;1.88;;;1.05;;
31724;SDS011;18306;40.960;14.836;2023-04-08T10:33:30;2.35;;;1.10;;
31724;SDS011;18306;40.960;14.836;2023-04-08T10:36:09;2.60;;;1.30;;
31724;SDS011;18306;40.960;14.836;2023-04-08T10:38:39;5.53;;;1.60;;
31724;SDS011;18306;40.960;14.836;2023-04-08T10:43:39;3.70;;;2.10;;
31724;SDS011;18306;40.960;14.836;2023-04-08T10:46:06;9.55;;;3.92;;
31724;SDS011;18306;40.960;14.836;2023-04-08T10:48:35;35.47;;;12.63;;
31724;SDS011;18306;40.960;14.836;2023-04-08T10:51:03;52.80;;;18.88;;
31724;SDS011;18306;40.960;14.836;2023-04-08T10:53:34;39.05;;;17.58;;
31724;SDS011;18306;40.960;14.836;2023-04-08T10:56:03;20.08;;;8.60;;
31724;SDS011;18306;40.960;14.836;2023-04-08T10:58:53;4.95;;;3.05;;
31724;SDS011;18306;40.960;14.836;2023-04-08T11:01:21;10.25;;;4.68;;
31724;SDS011;18306;40.960;14.836;2023-04-08T11:03:49;6.90;;;2.95;;
31724;SDS011;18306;40.960;14.836;2023-04-08T11:06:16;12.13;;;5.13;;
31724;SDS011;18306;40.960;14.836;2023-04-08T11:08:44;13.50;;;3.80;;
31724;SDS011;18306;40.960;14.836;2023-04-08T11:11:12;3.50;;;2.42;;
31724;SDS011;18306;40.960;14.836;2023-04-08T11:13:42;2.78;;;1.70;;
31724;SDS011;18306;40.960;14.836;2023-04-08T11:16:21;2.47;;;2.20;;
31724;SDS011;18306;40.960;14.836;2023-04-08T11:18:49;15.82;;;8.27;;
31724;SDS011;18306;40.960;14.836;2023-04-08T11:21:16;6.40;;;2.85;;
31724;SDS011;18306;40.960;14.836;2023-04-08T11:23:44;1.75;;;1.10;;
31724;SDS011;18306;40.960;14.836;2023-04-08T11:26:14;5.15;;;3.83;;
31724;SDS011;18306;40.960;14.836;2023-04-08T11:28:41;2.10;;;1.52;;
31724;SDS011;18306;40.960;14.836;2023-04-08T11:31:09;2.75;;;2.10;;
31724;SDS011;18306;40.960;14.836;2023-04-08T11:33:43;6.63;;;2.15;;
31724;SDS011;18306;40.960;14.836;2023-04-08T11:36:16;2.75;;;1.65;;
31724;SDS011;18306;40.960;14.836;2023-04-08T11:38:56;11.35;;;3.47;;
31724;SDS011;18306;40.960;14.836;2023-04-08T11:41:34;6.30;;;2.35;;
31724;SDS011;18306;40.960;14.836;2023-04-08T11:44:12;2.83;;;2.03;;
31724;SDS011;18306;40.960;14.836;2023-04-08T11:46:51;6.43;;;2.60;;
31724;SDS011;18306;40.960;14.836;2023-04-08T11:49:23;6.43;;;2.25;;
31724;SDS011;18306;40.960;14.836;2023-04-08T11:51:55;7.07;;;5.05;;
31724;SDS011;18306;40.960;14.836;2023-04-08T11:54:31;4.13;;;2.92;;
31724;SDS011;18306;40.960;14.836;2023-04-08T11:56:58;4.45;;;1.92;;
31724;SDS011;18306;40.960;14.836;2023-04-08T11:59:28;7.43;;;3.75;;
31724;SDS011;18306;40.960;14.836;2023-04-08T12:01:55;5.45;;;2.97;;
31724;SDS011;18306;40.960;14.836;2023-04-08T12:04:22;7.85;;;3.60;;
31724;SDS011;18306;40.960;14.836;2023-04-08T12:06:49;4.20;;;2.45;;
31724;SDS011;18306;40.960;14.836;2023-04-08T12:09:17;3.92;;;1.73;;
31724;SDS011;18306;40.960;14.836;2023-04-08T12:11:44;5.95;;;3.95;;
31724;SDS011;18306;40.960;14.836;2023-04-08T12:14:11;1.73;;;1.63;;
31724;SDS011;18306;40.960;14.836;2023-04-08T12:16:39;5.10;;;4.18;;
31724;SDS011;18306;40.960;14.836;2023-04-08T12:19:05;3.53;;;2.30;;
31724;SDS011;18306;40.960;14.836;2023-04-08T12:21:33;1.88;;;1.45;;
31724;SDS011;18306;40.960;14.836;2023-04-08T12:24:12;12.55;;;6.80;;
31724;SDS011;18306;40.960;14.836;2023-04-08T12:26:40;10.30;;;5.13;;
31724;SDS011;18306;40.960;14.836;2023-04-08T12:29:09;2.90;;;2.50;;
31724;SDS011;18306;40.960;14.836;2023-04-08T12:31:39;6.68;;;2.70;;
31724;SDS011;18306;40.960;14.836;2023-04-08T12:34:12;1.05;;;0.75;;
31724;SDS011;18306;40.960;14.836;2023-04-08T12:36:39;4.68;;;2.78;;
31724;SDS011;18306;40.960;14.836;2023-04-08T12:39:19;11.43;;;6.00;;
31724;SDS011;18306;40.960;14.836;2023-04-08T12:41:47;0.95;;;0.70;;
31724;SDS011;18306;40.960;14.836;2023-04-08T12:44:16;6.18;;;3.35;;
31724;SDS011;18306;40.960;14.836;2023-04-08T12:46:44;8.52;;;4.55;;
31724;SDS011;18306;40.960;14.836;2023-04-08T12:49:11;6.32;;;3.00;;
31724;SDS011;18306;40.960;14.836;2023-04-08T12:51:38;2.60;;;2.38;;
31724;SDS011;18306;40.960;14.836;2023-04-08T12:54:06;4.15;;;1.80;;
31724;SDS011;18306;40.960;14.836;2023-04-08T12:56:33;4.05;;;2.17;;
31724;SDS011;18306;40.960;14.836;2023-04-08T12:59:00;3.13;;;2.20;;
31724;SDS011;18306;40.960;14.836;2023-04-08T13:01:28;6.18;;;3.33;;
31724;SDS011;18306;40.960;14.836;2023-04-08T13:03:55;2.97;;;2.08;;
31724;SDS011;18306;40.960;14.836;2023-04-08T13:06:24;4.13;;;2.65;;
31724;SDS011;18306;40.960;14.836;2023-04-08T13:08:53;1.85;;;1.67;;
31724;SDS011;18306;40.960;14.836;2023-04-08T13:11:20;9.70;;;4.75;;
31724;SDS011;18306;40.960;14.836;2023-04-08T13:13:47;2.60;;;1.75;;
31724;SDS011;18306;40.960;14.836;2023-04-08T13:16:14;3.63;;;2.10;;
31724;SDS011;18306;40.960;14.836;2023-04-08T13:18:42;7.38;;;3.95;;
31724;SDS011;18306;40.960;14.836;2023-04-08T13:21:10;5.55;;;2.80;;
31724;SDS011;18306;40.960;14.836;2023-04-08T13:23:37;4.97;;;2.70;;
31724;SDS011;18306;40.960;14.836;2023-04-08T13:26:04;5.10;;;2.65;;
31724;SDS011;18306;40.960;14.836;2023-04-08T13:28:32;7.45;;;3.72;;
31724;SDS011;18306;40.960;14.836;2023-04-08T13:30:59;3.05;;;2.05;;
31724;SDS011;18306;40.960;14.836;2023-04-08T13:33:26;24.15;;;9.88;;
31724;SDS011;18306;40.960;14.836;2023-04-08T13:44:09;4.72;;;2.75;;
31724;SDS011;18306;40.960;14.836;2023-04-08T13:46:36;1.27;;;1.17;;
31724;SDS011;18306;40.960;14.836;2023-04-08T13:49:04;1.80;;;1.40;;
31724;SDS011;18306;40.960;14.836;2023-04-08T13:51:31;2.05;;;1.33;;
31724;SDS011;18306;40.960;14.836;2023-04-08T13:53:59;5.57;;;3.03;;
31724;SDS011;18306;40.960;14.836;2023-04-08T13:56:27;3.05;;;2.30;;
31724;SDS011;18306;40.960;14.836;2023-04-08T13:58:54;10.68;;;6.45;;
31724;SDS011;18306;40.960;14.836;2023-04-08T14:01:23;21.58;;;6.88;;
31724;SDS011;18306;40.960;14.836;2023-04-08T14:03:50;4.03;;;2.95;;
31724;SDS011;18306;40.960;14.836;2023-04-08T14:06:17;1.88;;;1.23;;
31724;SDS011;18306;40.960;14.836;2023-04-08T14:08:45;1.05;;;0.88;;
31724;SDS011;18306;40.960;14.836;2023-04-08T14:11:13;1.40;;;0.75;;
31724;SDS011;18306;40.960;14.836;2023-04-08T14:13:40;2.03;;;1.08;;
31724;SDS011;18306;40.960;14.836;2023-04-08T14:16:09;1.20;;;0.80;;
31724;SDS011;18306;40.960;14.836;2023-04-08T14:18:36;2.47;;;1.10;;
31724;SDS011;18306;40.960;14.836;2023-04-08T14:21:03;1.58;;;1.45;;
31724;SDS011;18306;40.960;14.836;2023-04-08T14:23:32;2.03;;;1.63;;
31724;SDS011;18306;40.960;14.836;2023-04-08T14:25:59;10.32;;;4.78;;
31724;SDS011;18306;40.960;14.836;2023-04-08T14:28:26;44.83;;;17.33;;
31724;SDS011;18306;40.960;14.836;2023-04-08T14:30:53;56.88;;;20.25;;
31724;SDS011;18306;40.960;14.836;2023-04-08T14:33:21;32.33;;;14.57;;
31724;SDS011;18306;40.960;14.836;2023-04-08T14:35:48;20.08;;;8.48;;
31724;SDS011;18306;40.960;14.836;2023-04-08T14:38:15;46.17;;;21.27;;
31724;SDS011;18306;40.960;14.836;2023-04-08T14:40:42;18.42;;;9.02;;
31724;SDS011;18306;40.960;14.836;2023-04-08T14:43:10;14.35;;;7.45;;
31724;SDS011;18306;40.960;14.836;2023-04-08T14:45:37;5.93;;;3.33;;
31724;SDS011;18306;40.960;14.836;2023-04-08T14:48:04;12.10;;;4.22;;
31724;SDS011;18306;40.960;14.836;2023-04-08T14:50:31;8.02;;;4.18;;
31724;SDS011;18306;40.960;14.836;2023-04-08T14:52:58;4.03;;;3.10;;
31724;SDS011;18306;40.960;14.836;2023-04-08T14:55:26;3.58;;;2.28;;
31724;SDS011;18306;40.960;14.836;2023-04-08T14:57:55;9.27;;;5.20;;
31724;SDS011;18306;40.960;14.836;2023-04-08T15:00:22;5.93;;;3.17;;
31724;SDS011;18306;40.960;14.836;2023-04-08T15:02:49;4.72;;;3.05;;
31724;SDS011;18306;40.960;14.836;2023-04-08T15:05:16;8.70;;;3.78;;
31724;SDS011;18306;40.960;14.836;2023-04-08T15:07:43;32.22;;;15.55;;
31724;SDS011;18306;40.960;14.836;2023-04-08T15:10:12;20.70;;;11.32;;
31724;SDS011;18306;40.960;14.836;2023-04-08T15:12:39;11.68;;;5.70;;
31724;SDS011;18306;40.960;14.836;2023-04-08T15:15:06;14.48;;;7.22;;
31724;SDS011;18306;40.960;14.836;2023-04-08T15:17:33;5.38;;;3.92;;
31724;SDS011;18306;40.960;14.836;2023-04-08T15:20:00;3.97;;;2.80;;